Time;durP1;ratioP1;P1;durP2;ratioP2;P2;SDS_P1;SDS_P2;PMS_P1;PMS_P2;Temp;Humidity;BMP_temperature;BMP_pressure;BME280_temperature;BME280_humidity;BME280_pressure;Samples;Min_cycle;Max_cycle;Signal;HPM_P1;HPM_P2
2023/01/02 00:05:18;;;;;;;4.43;1.70;;;12.70;55.70;;;;;;21255372;27;20058;-72
2023/01/02 00:15:20;;;;;;;3.15;1.70;;;12.70;57.80;;;;;;21248529;28;20095;-60
2023/01/02 00:25:22;;;;;;;3.10;1.80;;;12.70;59.40;;;;;;21260058;27;20051;-56
2023/01/02 00:35:26;;;;;;;;;;;12.70;60.20;;;;;;21265477;27;20054;-56
2023/01/02 00:45:28;;;;;;;8.38;2.50;;;12.70;61.00;;;;;;21263635;27;19919;-68
2023/01/02 00:55:30;;;;;;;3.33;2.03;;;12.70;61.30;;;;;;21265656;27;20413;-67
2023/01/02 01:05:33;;;;;;;5.03;2.15;;;12.70;61.40;;;;;;21263426;27;20483;-68
2023/01/02 01:15:35;;;;;;;4.13;2.55;;;12.80;62.00;;;;;;21261646;27;20392;-60
2023/01/02 01:25:38;;;;;;;3.55;1.88;;;12.70;62.60;;;;;;21260730;27;20043;-60
2023/01/02 01:35:42;;;;;;;6.55;2.00;;;12.70;63.40;;;;;;21259053;27;20051;-54
2023/01/02 01:45:45;;;;;;;4.45;2.47;;;12.60;63.60;;;;;;21258544;27;20051;-54
2023/01/02 01:55:57;;;;;;;5.60;2.35;;;12.60;63.20;;;;;;21257968;27;20051;-54
2023/01/02 02:06:01;;;;;;;4.15;2.30;;;12.60;63.20;;;;;;21257161;27;20054;-55
2023/01/02 02:16:16;;;;;;;6.68;3.33;;;12.60;63.70;;;;;;21255947;27;20051;-54
2023/01/02 02:27:03;;;;;;;6.18;3.42;;;12.60;65.80;;;;;;21255376;27;20046;-53
2023/01/02 02:37:42;;;;;;;4.40;2.80;;;12.40;69.20;;;;;;21255631;27;20062;-54
2023/01/02 02:48:12;;;;;;;7.22;2.67;;;12.40;70.70;;;;;;21255028;27;20055;-54
2023/01/02 02:58:19;;;;;;;4.70;3.10;;;12.40;71.00;;;;;;21253666;27;20043;-55
2023/01/02 03:08:40;;;;;;;7.72;3.40;;;12.30;71.40;;;;;;21252356;27;20407;-56
2023/01/02 03:19:05;;;;;;;9.77;6.75;;;12.30;72.10;;;;;;21251439;27;20432;-54
2023/01/02 03:29:23;;;;;;;5.38;3.15;;;12.20;73.40;;;;;;21250922;27;20406;-62
2023/01/02 03:39:33;;;;;;;8.70;3.20;;;12.20;72.50;;;;;;21232069;27;20562;-55
2023/01/02 03:49:40;;;;;;;5.82;3.53;;;12.10;71.20;;;;;;21250074;27;20447;-56
2023/01/02 04:00:08;;;;;;;6.75;3.83;;;12.10;70.90;;;;;;21248567;27;20055;-56
2023/01/02 04:10:23;;;;;;;8.02;4.03;;;12.20;70.20;;;;;;21248210;27;20055;-58
2023/01/02 04:20:49;;;;;;;7.93;3.35;;;12.20;69.80;;;;;;21248237;28;20059;-55
2023/01/02 04:31:18;;;;;;;13.05;4.20;;;12.00;71.10;;;;;;21248494;28;20047;-54
2023/01/02 04:41:40;;;;;;;8.68;4.43;;;12.10;71.00;;;;;;21246868;28;20077;-54
2023/01/02 04:52:01;;;;;;;7.63;4.18;;;12.00;72.30;;;;;;21247870;28;20055;-53
2023/01/02 05:02:17;;;;;;;6.53;3.97;;;12.00;72.50;;;;;;21246281;28;20051;-56
2023/01/02 05:12:35;;;;;;;10.38;5.25;;;12.20;72.10;;;;;;21257187;27;20051;-54
2023/01/02 05:33:03;;;;;;;10.93;5.68;;;12.20;71.90;;;;;;21260530;27;20047;-55
2023/01/02 05:43:05;;;;;;;8.65;4.47;;;12.10;72.90;;;;;;21259179;27;20058;-54
2023/01/02 05:53:07;;;;;;;6.53;3.78;;;12.00;73.80;;;;;;21259069;27;20047;-57
2023/01/02 06:03:09;;;;;;;5.50;3.45;;;12.10;73.80;;;;;;21256849;27;20095;-58
2023/01/02 06:13:11;;;;;;;8.00;3.20;;;12.00;74.00;;;;;;21257061;27;20058;-54
2023/01/02 06:23:16;;;;;;;8.47;4.20;;;12.10;73.90;;;;;;21256149;27;20047;-55
2023/01/02 06:33:19;;;;;;;10.70;4.13;;;12.10;73.60;;;;;;21254929;27;20044;-57
2023/01/02 06:43:21;;;;;;;5.25;3.28;;;12.00;74.50;;;;;;21253910;27;20047;-54
2023/01/02 06:53:23;;;;;;;5.25;3.10;;;11.90;75.40;;;;;;21253356;27;20051;-57
2023/01/02 07:03:25;;;;;;;5.85;2.85;;;11.80;76.50;;;;;;21253160;27;20043;-57
2023/01/02 07:13:27;;;;;;;7.07;3.20;;;11.70;77.10;;;;;;21251955;27;20047;-58
2023/01/02 07:23:31;;;;;;;7.40;3.10;;;11.70;77.60;;;;;;21251892;27;20070;-56
2023/01/02 07:33:34;;;;;;;15.98;5.30;;;11.70;77.80;;;;;;21248835;27;20050;-57
2023/01/02 07:43:36;;;;;;;8.68;4.25;;;11.80;77.60;;;;;;21248882;27;20051;-54
2023/01/02 07:53:40;;;;;;;6.53;4.63;;;11.80;77.90;;;;;;21249352;27;20047;-57
2023/01/02 08:03:41;;;;;;;8.02;4.00;;;11.80;78.40;;;;;;21248467;27;20063;-59
2023/01/02 08:13:43;;;;;;;11.27;4.95;;;11.70;78.30;;;;;;21248020;27;20055;-57
2023/01/02 08:23:45;;;;;;;6.25;4.57;;;11.80;77.90;;;;;;21248199;28;20051;-68
2023/01/02 08:33:47;;;;;;;7.60;3.97;;;11.80;77.80;;;;;;21248212;28;20168;-57
2023/01/02 08:43:49;;;;;;;10.10;5.07;;;11.90;77.70;;;;;;21272825;27;20043;-58
2023/01/02 08:53:50;;;;;;;11.82;4.28;;;12.00;76.40;;;;;;21271357;27;20490;-60
2023/01/02 09:03:52;;;;;;;7.38;4.50;;;12.50;75.60;;;;;;21261683;27;20140;-63
2023/01/02 09:13:55;;;;;;;6.60;4.05;;;13.10;72.20;;;;;;21262998;27;20475;-63
2023/01/02 09:23:57;;;;;;;5.20;2.15;;;12.70;74.60;;;;;;21262479;27;20411;-59
2023/01/02 09:33:59;;;;;;;4.93;3.33;;;12.50;74.70;;;;;;21260468;27;20086;-62
2023/01/02 09:44:14;;;;;;;5.88;2.42;;;12.50;75.30;;;;;;21259701;27;20083;-63
2023/01/02 09:54:29;;;;;;;4.53;2.90;;;12.50;75.20;;;;;;21258532;27;20047;-65
2023/01/02 10:04:30;;;;;;;;;;;12.60;75.20;;;;;;21258389;27;20039;-60
2023/01/02 10:15:04;;;;;;;4.38;3.35;;;12.60;74.50;;;;;;21257888;27;20285;-62
2023/01/02 10:25:21;;;;;;;6.00;3.40;;;12.70;75.20;;;;;;21252170;27;20475;-60
2023/01/02 10:35:32;;;;;;;5.95;4.00;;;12.90;74.20;;;;;;21256836;27;20198;-64
2023/01/02 10:45:34;;;;;;;11.65;5.22;;;13.10;72.90;;;;;;21255088;27;20051;-62
2023/01/02 10:55:43;;;;;;;13.57;6.43;;;13.00;74.80;;;;;;21253764;27;20402;-60
2023/01/02 11:05:48;;;;;;;11.07;6.60;;;13.20;74.10;;;;;;21252038;27;20108;-66
2023/01/02 11:15:58;;;;;;;9.80;7.05;;;13.20;73.70;;;;;;21251739;27;20122;-62
2023/01/02 11:26:01;;;;;;;17.67;6.90;;;;;;;;;;21251942;27;20051;-58
2023/01/02 11:36:03;;;;;;;12.32;6.55;;;14.10;72.00;;;;;;21250822;27;20086;-61
2023/01/02 11:46:09;;;;;;;11.32;5.90;;;13.80;73.20;;;;;;21249342;27;20069;-57
2023/01/02 11:56:36;;;;;;;8.65;5.75;;;14.20;71.10;;;;;;21187444;27;20133;-61
2023/01/02 12:07:05;;;;;;;10.25;6.07;;;13.80;71.40;;;;;;21145420;28;20130;-61
2023/01/02 12:17:10;;;;;;;10.30;5.32;;;13.70;72.20;;;;;;21136913;28;20058;-63
2023/01/02 12:27:14;;;;;;;8.98;5.30;;;13.70;72.30;;;;;;21258451;27;20082;-59
2023/01/02 12:37:15;;;;;;;9.93;5.77;;;13.70;71.50;;;;;;21275976;27;20084;-71
2023/01/02 12:47:39;;;;;;;9.60;6.10;;;13.70;71.70;;;;;;21257652;27;20047;-65
2023/01/02 12:57:57;;;;;;;10.93;6.45;;;13.60;72.00;;;;;;21275237;27;20050;-66
2023/01/02 13:08:04;;;;;;;13.77;8.05;;;13.70;71.20;;;;;;21274608;27;20138;-65
2023/01/02 13:18:12;;;;;;;8.93;6.10;;;13.90;71.10;;;;;;21274715;27;20501;-59
2023/01/02 13:28:15;;;;;;;8.13;6.05;;;;;;;;;;21269121;27;20043;-59
2023/01/02 13:38:19;;;;;;;10.60;5.33;;;14.00;69.10;;;;;;21241673;27;20051;-59
2023/01/02 13:48:31;;;;;;;7.57;5.40;;;13.80;69.00;;;;;;21259314;27;20509;-59
2023/01/02 13:58:50;;;;;;;6.85;5.53;;;13.70;69.00;;;;;;21258293;27;20555;-59
2023/01/02 14:09:04;;;;;;;7.45;5.10;;;13.70;68.90;;;;;;21256272;27;20058;-61
2023/01/02 14:19:12;;;;;;;6.97;4.72;;;;;;;;;;21257897;27;20380;-60
2023/01/02 14:29:17;;;;;;;9.57;4.53;;;14.00;67.50;;;;;;21237315;27;20039;-61
2023/01/02 14:39:25;;;;;;;7.13;4.15;;;14.00;67.10;;;;;;21236654;27;20062;-61
2023/01/02 14:49:28;;;;;;;4.75;4.25;;;13.90;66.90;;;;;;21254712;27;20043;-61
2023/01/02 14:59:37;;;;;;;8.18;4.47;;;14.00;66.40;;;;;;21252473;27;20058;-60
2023/01/02 15:09:44;;;;;;;6.80;4.32;;;14.00;67.20;;;;;;21251764;27;20055;-60
2023/01/02 15:19:46;;;;;;;7.15;4.55;;;13.90;67.40;;;;;;21251679;27;20464;-60
2023/01/02 15:29:52;;;;;;;6.47;4.70;;;13.90;67.50;;;;;;21252181;27;20534;-61
2023/01/02 15:39:55;;;;;;;19.05;11.18;;;13.90;68.00;;;;;;21250734;27;20083;-59
2023/01/02 15:49:57;;;;;;;7.22;4.95;;;13.80;68.10;;;;;;21249327;27;20050;-59
2023/01/02 15:59:59;;;;;;;8.68;4.95;;;13.70;68.20;;;;;;21249744;27;20076;-60
2023/01/02 16:10:01;;;;;;;6.25;4.90;;;13.70;68.20;;;;;;21248175;27;20078;-60
2023/01/02 16:20:14;;;;;;;6.10;3.85;;;13.70;68.30;;;;;;21247880;27;20051;-60
2023/01/02 16:30:27;;;;;;;5.85;4.10;;;13.70;68.10;;;;;;21247381;28;20050;-61
2023/01/02 16:40:36;;;;;;;6.80;3.30;;;13.70;67.80;;;;;;21247021;28;20407;-59
2023/01/02 16:50:41;;;;;;;9.25;5.75;;;13.60;68.20;;;;;;21246702;28;20415;-59
2023/01/02 17:00:43;;;;;;;8.70;4.10;;;13.50;69.40;;;;;;21248009;27;20049;-60
2023/01/02 17:10:45;;;;;;;9.82;5.22;;;13.50;69.00;;;;;;21346730;27;20125;-58
2023/01/02 17:20:47;;;;;;;9.23;5.30;;;13.40;69.30;;;;;;21347227;27;20050;-57
2023/01/02 17:30:49;;;;;;;9.23;5.85;;;13.50;69.90;;;;;;21346662;27;20130;-59
2023/01/02 17:40:56;;;;;;;6.78;3.95;;;13.40;70.10;;;;;;21346405;27;20090;-60
2023/01/02 17:50:58;;;;;;;9.30;4.57;;;13.40;70.60;;;;;;21345656;27;20043;-65
2023/01/02 18:01:00;;;;;;;43.75;9.55;;;;;;;;;;21343740;27;20077;-60
2023/01/02 18:11:05;;;;;;;6.85;5.03;;;14.00;71.00;;;;;;21342431;27;20042;-58
2023/01/02 18:21:10;;;;;;;11.70;5.40;;;;;;;;;;21342160;27;20447;-59
2023/01/02 18:31:14;;;;;;;10.50;4.85;;;14.60;71.00;;;;;;21343337;27;20081;-62
2023/01/02 18:41:18;;;;;;;27.77;9.55;;;;;;;;;;21340466;27;20057;-62
2023/01/02 18:51:22;;;;;;;18.27;9.48;;;;;;;;;;21339623;27;20043;-61
2023/01/02 19:01:29;;;;;;;9.18;5.78;;;14.20;70.00;;;;;;21339619;27;20551;-62
2023/01/02 19:21:55;;;;;;;18.13;8.48;;;;;;;;;;21338897;27;20486;-65
2023/01/02 19:31:59;;;;;;;9.15;5.70;;;14.60;69.90;;;;;;21336532;27;20046;-63
2023/01/02 19:42:19;;;;;;;13.68;8.38;;;14.40;69.40;;;;;;21335450;27;20050;-61
2023/01/02 19:52:22;;;;;;;17.63;8.55;;;13.90;70.20;;;;;;21336659;27;20410;-59
2023/01/02 20:02:24;;;;;;;29.80;7.93;;;;;;;;;;21333274;27;20043;-60
2023/01/02 20:12:29;;;;;;;12.43;7.20;;;;;;;;;;21333197;27;20053;-64
2023/01/02 20:22:31;;;;;;;;;;;;;;;;;;21333172;27;20061;-64
2023/01/02 20:32:33;;;;;;;13.38;7.85;;;;;;;;;;21334274;27;19919;-58
2023/01/02 20:42:35;;;;;;;15.32;8.93;;;13.90;71.60;;;;;;21348386;27;20057;-58
2023/01/02 20:52:37;;;;;;;16.70;8.13;;;13.50;71.40;;;;;;21352673;27;20050;-59
2023/01/02 21:02:39;;;;;;;18.27;9.13;;;13.30;71.60;;;;;;21349521;27;20054;-64
2023/01/02 21:23:03;;;;;;;18.88;8.40;;;12.90;72.40;;;;;;21349314;27;20050;-57
2023/01/02 21:33:07;;;;;;;18.73;8.68;;;12.70;72.80;;;;;;21348018;27;20470;-59
2023/01/02 21:43:10;;;;;;;16.25;9.45;;;12.80;72.70;;;;;;21345747;27;20406;-59
2023/01/02 21:53:17;;;;;;;17.45;10.68;;;12.70;72.80;;;;;;21345040;27;20089;-58
2023/01/02 22:03:21;;;;;;;13.97;7.97;;;12.40;72.50;;;;;;21345467;27;20494;-61
2023/01/02 22:13:23;;;;;;;11.88;6.68;;;12.30;72.80;;;;;;21344388;27;20046;-65
2023/01/02 22:23:26;;;;;;;9.57;5.50;;;12.20;71.70;;;;;;21344683;27;20518;-58
2023/01/02 22:33:31;;;;;;;;;;;11.80;72.00;;;;;;21344798;27;20050;-63
2023/01/02 22:43:37;;;;;;;8.90;5.70;;;11.70;70.20;;;;;;21342776;27;19919;-64
2023/01/02 22:53:40;;;;;;;11.02;5.85;;;11.70;69.50;;;;;;21342176;27;20498;-61
2023/01/02 23:03:45;;;;;;;9.60;6.38;;;11.60;69.90;;;;;;21340769;27;20411;-61
2023/01/02 23:13:48;;;;;;;10.68;5.68;;;11.40;70.70;;;;;;21342112;27;20047;-66
2023/01/02 23:23:51;;;;;;;9.88;5.93;;;11.30;71.70;;;;;;21338115;27;20058;-58
2023/01/02 23:33:53;;;;;;;8.30;5.90;;;11.20;72.60;;;;;;21336764;27;20051;-59
2023/01/02 23:43:55;;;;;;;7.93;5.88;;;11.00;73.40;;;;;;21337129;27;20042;-58
2023/01/02 23:53:58;;;;;;;10.35;6.38;;;10.80;73.80;;;;;;21335782;27;20050;-57
